createdAt,value
2022-12-23T00:00:32.478Z,99.99
2022-12-23T00:01:32.516Z,99.99
2022-12-23T00:02:32.615Z,99.99
2022-12-23T00:03:32.720Z,99.99
2022-12-23T00:04:32.512Z,99.99
2022-12-23T00:05:37.453Z,99.99
2022-12-23T00:06:32.518Z,99.99
2022-12-23T00:07:32.529Z,99.99
2022-12-23T00:08:32.528Z,99.99
2022-12-23T00:09:32.543Z,99.99
2022-12-23T00:10:32.543Z,99.99
2022-12-23T00:11:32.557Z,99.99
2022-12-23T00:12:32.581Z,99.99
2022-12-23T00:13:32.568Z,99.99
2022-12-23T00:14:32.570Z,99.99
2022-12-23T00:15:32.580Z,99.99
2022-12-23T00:16:32.627Z,99.99
2022-12-23T00:17:32.608Z,99.99
2022-12-23T00:18:32.594Z,99.99
2022-12-23T00:19:32.611Z,99.99
2022-12-23T00:20:32.623Z,99.99
2022-12-23T00:21:32.632Z,99.99
2022-12-23T00:22:32.624Z,99.99
2022-12-23T00:23:32.641Z,99.99
2022-12-23T00:24:32.638Z,99.99
2022-12-23T00:25:32.648Z,99.99
2022-12-23T00:26:32.649Z,99.99
2022-12-23T00:27:37.371Z,99.99
2022-12-23T00:28:32.688Z,99.99
2022-12-23T00:29:32.677Z,99.99
2022-12-23T00:30:32.676Z,99.99
2022-12-23T00:31:32.747Z,99.99
2022-12-23T00:32:32.694Z,99.99
2022-12-23T00:33:32.706Z,99.99
2022-12-23T00:34:32.708Z,99.99
2022-12-23T00:35:32.715Z,99.99
2022-12-23T00:36:32.827Z,99.99
2022-12-23T00:37:32.727Z,99.99
2022-12-23T00:38:32.730Z,99.99
2022-12-23T00:39:32.758Z,99.99
2022-12-23T00:40:32.807Z,99.99
2022-12-23T00:41:32.759Z,99.99
2022-12-23T00:42:32.762Z,99.99
2022-12-23T00:43:32.767Z,99.99
2022-12-23T00:44:32.831Z,99.99
2022-12-23T00:45:32.842Z,99.99
2022-12-23T00:46:32.852Z,99.99
2022-12-23T00:47:32.812Z,99.99
2022-12-23T00:48:32.803Z,99.99
2022-12-23T00:49:32.809Z,99.99
2022-12-23T00:50:32.820Z,99.99
2022-12-23T00:51:32.835Z,99.99
2022-12-23T00:52:32.828Z,99.99
2022-12-23T00:53:32.837Z,99.99
2022-12-23T00:54:32.841Z,99.99
2022-12-23T00:55:32.859Z,99.99
2022-12-23T00:56:32.855Z,99.99
2022-12-23T00:57:32.883Z,99.99
2022-12-23T00:58:32.871Z,99.99
2022-12-23T00:59:32.882Z,99.99
2022-12-23T01:00:32.899Z,99.99
2022-12-23T01:01:33.006Z,99.99
2022-12-23T01:02:33.028Z,99.99
2022-12-23T01:03:33.000Z,99.99
2022-12-23T01:04:32.920Z,99.99
2022-12-23T01:05:32.924Z,99.99
2022-12-23T01:06:32.927Z,99.99
2022-12-23T01:07:32.935Z,99.99
2022-12-23T01:08:32.945Z,99.99
2022-12-23T01:09:32.953Z,99.99
2022-12-23T01:10:32.962Z,99.99
2022-12-23T01:11:32.961Z,99.99
2022-12-23T01:12:32.973Z,99.99
2022-12-23T01:13:32.999Z,99.99
2022-12-23T01:14:32.988Z,99.99
2022-12-23T01:15:32.993Z,99.99
2022-12-23T01:16:33.069Z,99.99
2022-12-23T01:17:33.005Z,99.99
2022-12-23T01:18:33.017Z,99.99
2022-12-23T01:19:33.015Z,99.99
2022-12-23T01:20:33.036Z,99.99
2022-12-23T01:21:33.050Z,99.99
2022-12-23T01:22:33.047Z,99.99
2022-12-23T01:23:33.043Z,99.99
2022-12-23T01:24:33.098Z,99.99
2022-12-23T01:25:33.059Z,99.99
2022-12-23T01:26:33.075Z,99.99
2022-12-23T01:27:33.072Z,99.99
2022-12-23T01:28:33.083Z,99.99
2022-12-23T01:29:33.086Z,99.99
2022-12-23T01:30:33.120Z,99.99
2022-12-23T01:31:33.176Z,99.99
2022-12-23T01:32:33.135Z,99.99
2022-12-23T01:33:33.140Z,99.99
2022-12-23T01:34:37.181Z,99.99
2022-12-23T01:35:33.150Z,99.99
2022-12-23T01:36:33.139Z,99.99
2022-12-23T01:37:33.145Z,99.99
2022-12-23T01:38:33.163Z,99.99
2022-12-23T01:39:33.171Z,99.99
2022-12-23T01:40:33.172Z,99.99
2022-12-23T01:41:33.174Z,99.99
2022-12-23T01:42:33.184Z,99.99
2022-12-23T01:43:33.186Z,99.99
2022-12-23T01:44:33.198Z,99.99
2022-12-23T01:45:33.241Z,99.99
2022-12-23T01:46:33.257Z,99.99
2022-12-23T01:47:33.216Z,99.99
2022-12-23T01:48:33.297Z,99.99
2022-12-23T01:49:33.228Z,99.99
2022-12-23T01:50:33.260Z,99.99
2022-12-23T01:51:33.248Z,99.99
2022-12-23T01:52:33.254Z,99.99
2022-12-23T01:53:33.260Z,99.99
2022-12-23T01:54:33.274Z,99.99
2022-12-23T01:55:33.278Z,99.99
2022-12-23T01:56:33.286Z,99.99
2022-12-23T01:57:33.290Z,99.99
2022-12-23T01:58:33.320Z,99.99
2022-12-23T01:59:33.303Z,99.99
2022-12-23T02:00:33.313Z,99.99
2022-12-23T02:01:33.427Z,99.99
2022-12-23T02:02:33.551Z,99.99
2022-12-23T02:03:33.415Z,99.99
2022-12-23T02:04:33.367Z,99.99
2022-12-23T02:05:33.344Z,99.99
2022-12-23T02:06:33.356Z,99.99
2022-12-23T02:07:33.359Z,99.99
2022-12-23T02:08:33.371Z,99.99
2022-12-23T02:09:33.374Z,99.99
2022-12-23T02:10:33.397Z,99.99
2022-12-23T02:11:33.390Z,99.99
2022-12-23T02:12:33.469Z,99.99
2022-12-23T02:13:33.406Z,99.99
2022-12-23T02:14:33.417Z,99.99
2022-12-23T02:15:33.419Z,99.99
2022-12-23T02:16:33.450Z,99.99
2022-12-23T02:17:33.429Z,99.99
2022-12-23T02:18:33.452Z,99.99
2022-12-23T02:19:33.445Z,99.99
2022-12-23T02:20:33.474Z,99.99
2022-12-23T02:21:33.473Z,99.99
2022-12-23T02:22:33.466Z,99.99
2022-12-23T02:23:33.477Z,99.99
2022-12-23T02:24:33.478Z,99.99
2022-12-23T02:25:33.488Z,99.99
2022-12-23T02:26:33.502Z,99.99
2022-12-23T02:27:33.515Z,99.99
2022-12-23T02:28:33.513Z,99.99
2022-12-23T02:29:33.514Z,99.99
2022-12-23T02:30:33.577Z,99.99
2022-12-23T02:31:33.527Z,99.99
2022-12-23T02:32:33.539Z,99.99
2022-12-23T02:33:33.558Z,99.99
2022-12-23T02:34:33.555Z,99.99
2022-12-23T02:35:33.557Z,99.99
2022-12-23T02:36:33.583Z,99.99
2022-12-23T02:37:33.570Z,99.99
2022-12-23T02:38:33.581Z,99.99
2022-12-23T02:39:33.591Z,99.99
2022-12-23T02:40:33.608Z,99.99
2022-12-23T02:41:33.604Z,99.99
2022-12-23T02:42:33.612Z,99.99
2022-12-23T02:43:33.609Z,99.99
2022-12-23T02:44:33.624Z,99.99
2022-12-23T02:45:33.627Z,99.99
2022-12-23T02:46:33.719Z,99.99
2022-12-23T02:47:33.692Z,99.99
2022-12-23T02:48:33.661Z,99.99
2022-12-23T02:49:33.665Z,99.99
2022-12-23T02:50:33.668Z,99.99
2022-12-23T02:51:33.673Z,99.99
2022-12-23T02:52:33.767Z,99.99
2022-12-23T02:53:33.685Z,99.99
2022-12-23T02:54:33.694Z,99.99
2022-12-23T02:55:33.697Z,99.99
2022-12-23T02:56:33.706Z,99.99
2022-12-23T02:57:33.712Z,99.99
2022-12-23T02:58:33.725Z,99.99
2022-12-23T02:59:33.723Z,99.99
2022-12-23T03:00:33.742Z,99.99
2022-12-23T03:01:33.886Z,99.99
2022-12-23T03:02:33.996Z,99.99
2022-12-23T03:03:33.812Z,99.99
2022-12-23T03:04:33.815Z,99.99
2022-12-23T03:05:33.766Z,99.99
2022-12-23T03:06:33.782Z,99.99
2022-12-23T03:07:33.821Z,99.99
2022-12-23T03:08:33.809Z,99.99
2022-12-23T03:09:33.795Z,99.99
2022-12-23T03:10:33.808Z,99.99
2022-12-23T03:11:33.818Z,99.99
2022-12-23T03:12:33.813Z,99.99
2022-12-23T03:13:33.843Z,99.99
2022-12-23T03:14:33.837Z,99.99
2022-12-23T03:15:33.952Z,99.99
2022-12-23T03:16:33.845Z,99.99
2022-12-23T03:17:33.846Z,99.99
2022-12-23T03:18:33.858Z,99.99
2022-12-23T03:19:33.863Z,99.99
2022-12-23T03:20:33.874Z,99.99
2022-12-23T03:21:33.877Z,99.99
2022-12-23T03:22:33.886Z,99.99
2022-12-23T03:23:33.892Z,99.99
2022-12-23T03:24:33.970Z,99.99
2022-12-23T03:25:33.902Z,99.99
2022-12-23T03:26:33.911Z,99.99
2022-12-23T03:27:33.916Z,99.99
2022-12-23T03:28:33.930Z,99.99
2022-12-23T03:29:33.940Z,99.99
2022-12-23T03:30:33.954Z,99.99
2022-12-23T03:31:33.997Z,99.99
2022-12-23T03:32:33.963Z,99.99
2022-12-23T03:33:33.963Z,99.99
2022-12-23T03:34:33.982Z,99.99
2022-12-23T03:35:33.969Z,99.99
2022-12-23T03:36:34.000Z,99.99
2022-12-23T03:37:33.993Z,99.99
2022-12-23T03:38:33.995Z,99.99
2022-12-23T03:39:34.000Z,99.99
2022-12-23T03:40:34.041Z,99.99
2022-12-23T03:41:34.013Z,99.99
2022-12-23T03:42:34.027Z,99.99
2022-12-23T03:43:34.027Z,99.99
2022-12-23T03:44:34.038Z,99.99
2022-12-23T03:45:39.432Z,99.99
2022-12-23T03:46:34.134Z,99.99
2022-12-23T03:47:34.058Z,99.99
2022-12-23T03:48:34.066Z,99.99
2022-12-23T03:49:34.069Z,99.99
2022-12-23T03:50:34.093Z,99.99
2022-12-23T03:51:34.086Z,99.99
2022-12-23T03:52:34.102Z,99.99
2022-12-23T03:53:34.099Z,99.99
2022-12-23T03:54:34.108Z,99.99
2022-12-23T03:55:34.110Z,99.99
2022-12-23T03:56:34.151Z,99.99
2022-12-23T03:57:34.125Z,99.99
2022-12-23T03:58:34.137Z,99.99
2022-12-23T03:59:34.145Z,99.99
2022-12-23T04:00:34.153Z,99.99
2022-12-23T04:01:34.349Z,99.99
2022-12-23T04:02:34.316Z,99.99
2022-12-23T04:03:34.234Z,99.99
2022-12-23T04:04:34.181Z,99.99
2022-12-23T04:05:34.185Z,99.99
2022-12-23T04:06:34.193Z,99.99
2022-12-23T04:07:34.196Z,99.99
2022-12-23T04:08:34.205Z,99.99
2022-12-23T04:09:34.212Z,99.99
2022-12-23T04:10:34.221Z,99.99
2022-12-23T04:11:34.239Z,99.99
2022-12-23T04:12:34.257Z,99.99
2022-12-23T04:13:34.246Z,99.99
2022-12-23T04:14:34.253Z,99.99
2022-12-23T04:15:34.262Z,99.99
2022-12-23T04:16:34.358Z,99.99
2022-12-23T04:17:34.269Z,99.99
2022-12-23T04:18:34.309Z,99.99
2022-12-23T04:19:34.282Z,99.99
2022-12-23T04:20:34.293Z,99.99
2022-12-23T04:21:34.296Z,99.99
2022-12-23T04:22:34.322Z,99.99
2022-12-23T04:23:34.309Z,99.99
2022-12-23T04:24:34.330Z,99.99
2022-12-23T04:25:34.324Z,99.99
2022-12-23T04:26:34.334Z,99.99
2022-12-23T04:27:34.341Z,99.99
2022-12-23T04:28:34.434Z,99.99
2022-12-23T04:29:34.353Z,99.99
2022-12-23T04:30:34.978Z,99.99
2022-12-23T04:31:34.445Z,99.99
2022-12-23T04:32:34.381Z,99.99
2022-12-23T04:33:34.380Z,99.99
2022-12-23T04:34:34.400Z,99.99
2022-12-23T04:35:34.392Z,99.99
2022-12-23T04:36:34.411Z,99.99
2022-12-23T04:37:34.410Z,99.99
2022-12-23T04:38:34.427Z,99.99
2022-12-23T04:39:34.432Z,99.99
2022-12-23T04:40:34.434Z,99.99
2022-12-23T04:41:34.443Z,99.99
2022-12-23T04:42:34.448Z,99.99
2022-12-23T04:43:34.452Z,99.99
2022-12-23T04:44:34.487Z,99.99
2022-12-23T04:45:34.470Z,99.99
2022-12-23T04:46:34.603Z,99.99
2022-12-23T04:47:34.490Z,99.99
2022-12-23T04:48:34.491Z,99.99
2022-12-23T04:49:34.496Z,99.99
2022-12-23T04:50:34.507Z,99.99
2022-12-23T04:51:34.517Z,99.99
2022-12-23T04:52:34.532Z,99.99
2022-12-23T04:53:34.523Z,99.99
2022-12-23T04:54:34.536Z,99.99
2022-12-23T04:55:34.534Z,99.99
2022-12-23T04:56:34.547Z,99.99
2022-12-23T04:57:34.568Z,99.99
2022-12-23T04:58:34.579Z,99.99
2022-12-23T04:59:34.568Z,99.99
2022-12-23T05:00:39.548Z,99.99
2022-12-23T05:01:34.724Z,99.99
2022-12-23T05:02:34.724Z,99.99
2022-12-23T05:03:34.675Z,99.99
2022-12-23T05:04:34.725Z,99.99
2022-12-23T05:05:34.636Z,99.99
2022-12-23T05:06:34.622Z,99.99
2022-12-23T05:07:34.629Z,99.99
2022-12-23T05:08:34.637Z,99.99
2022-12-23T05:09:34.640Z,99.99
2022-12-23T05:10:34.653Z,99.99
2022-12-23T05:11:40.161Z,99.99
2022-12-23T05:12:34.669Z,99.99
2022-12-23T05:13:34.689Z,99.99
2022-12-23T05:14:34.705Z,99.99
2022-12-23T05:15:34.688Z,99.99
2022-12-23T05:16:34.813Z,99.99
2022-12-23T05:17:34.712Z,99.99
2022-12-23T05:18:34.713Z,99.99
2022-12-23T05:19:34.713Z,99.99
2022-12-23T05:20:34.731Z,99.99
2022-12-23T05:21:34.733Z,99.99
2022-12-23T05:22:34.757Z,99.99
2022-12-23T05:23:34.769Z,99.99
2022-12-23T05:24:34.755Z,99.99
2022-12-23T05:25:34.763Z,99.99
2022-12-23T05:26:34.794Z,99.99
2022-12-23T05:27:34.775Z,99.99
2022-12-23T05:28:34.890Z,99.99
2022-12-23T05:29:34.793Z,99.99
2022-12-23T05:30:34.801Z,99.99
2022-12-23T05:31:34.862Z,99.99
2022-12-23T05:32:34.832Z,99.99
2022-12-23T05:33:34.898Z,99.99
2022-12-23T05:34:34.833Z,99.99
2022-12-23T05:35:34.851Z,99.99
2022-12-23T05:36:34.841Z,99.99
2022-12-23T05:37:34.851Z,99.99
2022-12-23T05:38:34.856Z,99.99
2022-12-23T05:39:34.874Z,99.99
2022-12-23T05:40:34.872Z,99.99
2022-12-23T05:41:34.882Z,99.99
2022-12-23T05:42:34.890Z,99.99
2022-12-23T05:43:34.907Z,99.99
2022-12-23T05:44:34.898Z,99.99
2022-12-23T05:45:34.960Z,99.99
2022-12-23T05:46:35.022Z,99.99
2022-12-23T05:47:34.933Z,99.99
2022-12-23T05:48:34.950Z,99.99
2022-12-23T05:49:34.943Z,99.99
2022-12-23T05:50:34.946Z,99.99
2022-12-23T05:51:34.968Z,99.99
2022-12-23T05:52:34.980Z,99.99
2022-12-23T05:53:34.983Z,99.99
2022-12-23T05:54:34.980Z,99.99
2022-12-23T05:55:34.981Z,99.99
2022-12-23T05:56:34.990Z,99.99
2022-12-23T05:57:34.998Z,99.99
2022-12-23T05:58:35.000Z,99.99
2022-12-23T05:59:35.020Z,99.99
2022-12-23T06:00:35.023Z,99.99
2022-12-23T06:01:35.109Z,99.99
2022-12-23T06:02:35.319Z,99.99
2022-12-23T06:03:35.234Z,99.99
2022-12-23T06:04:35.069Z,99.99
2022-12-23T06:05:35.059Z,99.99
2022-12-23T06:06:35.059Z,99.99
2022-12-23T06:07:35.076Z,99.99
2022-12-23T06:08:35.078Z,99.99
2022-12-23T06:09:35.089Z,99.99
2022-12-23T06:10:35.099Z,99.99
2022-12-23T06:11:35.101Z,99.99
2022-12-23T06:12:35.105Z,99.99
2022-12-23T06:13:35.124Z,99.99
2022-12-23T06:14:35.120Z,99.99
2022-12-23T06:15:35.147Z,99.99
2022-12-23T06:16:35.275Z,99.99
2022-12-23T06:17:35.147Z,99.99
2022-12-23T06:18:35.163Z,99.99
2022-12-23T06:19:35.201Z,99.99
2022-12-23T06:20:35.187Z,99.99
2022-12-23T06:21:35.178Z,99.99
2022-12-23T06:22:35.189Z,99.99
2022-12-23T06:23:35.192Z,99.99
2022-12-23T06:24:35.192Z,99.99
2022-12-23T06:25:35.218Z,99.99
2022-12-23T06:26:35.207Z,99.99
2022-12-23T06:27:35.219Z,99.99
2022-12-23T06:28:35.231Z,99.99
2022-12-23T06:29:35.233Z,99.99
2022-12-23T06:30:35.256Z,99.99
2022-12-23T06:31:35.310Z,99.99
2022-12-23T06:32:38.509Z,99.99
2022-12-23T06:33:35.265Z,99.99
2022-12-23T06:34:35.266Z,99.99
2022-12-23T06:35:35.291Z,99.99
2022-12-23T06:36:35.298Z,99.99
2022-12-23T06:37:35.292Z,99.99
2022-12-23T06:38:35.302Z,99.99
2022-12-23T06:39:35.307Z,99.99
2022-12-23T06:40:35.310Z,99.99
2022-12-23T06:41:35.325Z,99.99
2022-12-23T06:42:35.324Z,99.99
2022-12-23T06:43:35.335Z,99.99
2022-12-23T06:44:35.342Z,99.99
2022-12-23T06:45:35.373Z,99.99
2022-12-23T06:46:35.359Z,99.99
2022-12-23T06:47:35.365Z,99.99
2022-12-23T06:48:35.367Z,99.99
2022-12-23T06:49:35.386Z,99.99
2022-12-23T06:50:35.390Z,99.99
2022-12-23T06:51:35.393Z,99.99
2022-12-23T06:52:35.425Z,99.99
2022-12-23T06:53:35.412Z,99.99
2022-12-23T06:54:35.414Z,99.99
2022-12-23T06:55:35.428Z,99.99
2022-12-23T06:56:35.424Z,99.99
2022-12-23T06:57:35.441Z,99.99
2022-12-23T06:58:35.442Z,99.99
2022-12-23T06:59:35.463Z,99.99
2022-12-23T07:00:35.462Z,99.99
2022-12-23T07:01:35.772Z,99.99
2022-12-23T07:02:35.592Z,99.99
2022-12-23T07:03:35.595Z,99.99
2022-12-23T07:04:35.541Z,99.99
2022-12-23T07:05:37.722Z,99.99
2022-12-23T07:06:35.497Z,99.99
2022-12-23T07:07:35.508Z,99.99
2022-12-23T07:08:35.535Z,99.99
2022-12-23T07:09:35.572Z,99.99
2022-12-23T07:10:35.547Z,99.99
2022-12-23T07:11:35.593Z,99.99
2022-12-23T07:12:35.574Z,99.99
2022-12-23T07:13:35.562Z,99.99
2022-12-23T07:14:35.627Z,99.99
2022-12-23T07:15:35.585Z,99.99
2022-12-23T07:16:35.631Z,99.99
2022-12-23T07:17:35.578Z,99.99
2022-12-23T07:18:35.587Z,99.99
2022-12-23T07:19:35.592Z,99.99
2022-12-23T07:20:35.602Z,99.99
2022-12-23T07:21:35.610Z,99.99
2022-12-23T07:22:35.660Z,99.99
2022-12-23T07:23:35.623Z,99.99
2022-12-23T07:24:35.649Z,99.99
2022-12-23T07:25:35.636Z,99.99
2022-12-23T07:26:35.642Z,99.99
2022-12-23T07:27:35.665Z,99.99
2022-12-23T07:28:35.672Z,99.99
2022-12-23T07:29:35.667Z,99.99
2022-12-23T07:30:35.679Z,99.99
2022-12-23T07:31:39.377Z,99.99
2022-12-23T07:32:35.715Z,99.99
2022-12-23T07:33:35.695Z,99.99
2022-12-23T07:34:35.700Z,99.99
2022-12-23T07:35:35.749Z,99.99
2022-12-23T07:36:35.812Z,99.99
2022-12-23T07:37:35.728Z,99.99
2022-12-23T07:38:35.740Z,99.99
2022-12-23T07:39:35.744Z,99.99
2022-12-23T07:40:35.763Z,99.99
2022-12-23T07:41:35.750Z,99.99
2022-12-23T07:42:45.787Z,99.99
2022-12-23T07:43:35.765Z,99.99
2022-12-23T07:44:35.772Z,99.99
2022-12-23T07:45:35.824Z,99.99
2022-12-23T07:46:35.888Z,99.99
2022-12-23T07:47:35.795Z,99.99
2022-12-23T07:48:35.809Z,99.99
2022-12-23T07:49:35.814Z,99.99
2022-12-23T07:50:35.811Z,99.99
2022-12-23T07:51:35.826Z,99.99
2022-12-23T07:52:35.833Z,99.99
2022-12-23T07:53:35.836Z,99.99
2022-12-23T07:54:35.844Z,99.99
2022-12-23T07:55:35.853Z,99.99
2022-12-23T07:56:35.890Z,99.99
2022-12-23T07:57:35.867Z,99.99
2022-12-23T07:58:35.874Z,99.99
2022-12-23T07:59:35.886Z,99.99
2022-12-23T08:00:35.889Z,99.99
2022-12-23T08:01:36.011Z,99.99
2022-12-23T08:02:36.071Z,99.99
2022-12-23T08:03:35.958Z,99.99
2022-12-23T08:04:38.436Z,99.99
2022-12-23T08:05:35.922Z,99.99
2022-12-23T08:06:35.928Z,99.99
2022-12-23T08:07:35.942Z,99.99
2022-12-23T08:08:35.940Z,99.99
2022-12-23T08:09:35.963Z,99.99
2022-12-23T08:10:35.960Z,99.99
2022-12-23T08:11:35.967Z,99.99
2022-12-23T08:12:36.016Z,99.99
2022-12-23T08:13:35.984Z,99.99
2022-12-23T08:14:35.984Z,99.99
2022-12-23T08:15:36.001Z,99.99
2022-12-23T08:16:43.013Z,99.99
2022-12-23T08:17:36.008Z,99.99
2022-12-23T08:18:36.035Z,99.99
2022-12-23T08:19:36.031Z,99.99
2022-12-23T08:20:36.041Z,99.99
2022-12-23T08:21:36.039Z,99.99
2022-12-23T08:22:36.043Z,99.99
2022-12-23T08:23:36.058Z,99.99
2022-12-23T08:24:36.059Z,99.99
2022-12-23T08:25:36.069Z,99.99
2022-12-23T08:26:36.073Z,99.99
2022-12-23T08:27:36.083Z,99.99
2022-12-23T08:28:36.111Z,99.99
2022-12-23T08:29:36.713Z,99.99
2022-12-23T08:30:36.130Z,99.99
2022-12-23T08:31:36.112Z,99.99
2022-12-23T08:32:36.124Z,99.99
2022-12-23T08:33:36.129Z,99.99
2022-12-23T08:34:36.133Z,99.99
2022-12-23T08:35:36.141Z,99.99
2022-12-23T08:36:36.202Z,99.99
2022-12-23T08:37:36.157Z,99.99
2022-12-23T08:38:36.161Z,99.99
2022-12-23T08:39:36.173Z,99.99
2022-12-23T08:40:36.175Z,99.99
2022-12-23T08:41:36.197Z,99.99
2022-12-23T08:42:36.188Z,99.99
2022-12-23T08:43:36.445Z,99.99
2022-12-23T08:44:36.228Z,99.99
2022-12-23T08:45:36.244Z,99.99
2022-12-23T08:46:36.343Z,99.99
2022-12-23T08:47:36.232Z,99.99
2022-12-23T08:48:36.266Z,99.99
2022-12-23T08:49:36.255Z,99.99
2022-12-23T08:50:36.269Z,99.99
2022-12-23T08:51:36.297Z,99.99
2022-12-23T08:52:36.266Z,99.99
2022-12-23T08:53:36.295Z,99.99
2022-12-23T08:54:36.280Z,99.99
2022-12-23T08:55:36.293Z,99.99
2022-12-23T08:56:36.310Z,99.99
2022-12-23T08:57:36.308Z,99.99
2022-12-23T08:58:36.323Z,99.99
2022-12-23T08:59:36.329Z,99.99
2022-12-23T09:00:36.400Z,99.99
2022-12-23T09:01:36.539Z,99.99
2022-12-23T09:02:36.536Z,99.99
2022-12-23T09:03:36.490Z,99.99
2022-12-23T09:04:36.369Z,99.99
2022-12-23T09:05:36.369Z,99.99
2022-12-23T09:06:36.371Z,99.99
2022-12-23T09:07:36.380Z,99.99
2022-12-23T09:08:36.393Z,99.99
2022-12-23T09:09:36.408Z,99.99
2022-12-23T09:10:36.398Z,99.99
2022-12-23T09:11:36.407Z,99.99
2022-12-23T09:12:36.413Z,99.99
2022-12-23T09:13:36.434Z,99.99
2022-12-23T09:14:36.428Z,99.99
2022-12-23T09:15:36.533Z,99.99
2022-12-23T09:16:36.597Z,99.99
2022-12-23T09:17:36.453Z,99.99
2022-12-23T09:18:36.461Z,99.99
2022-12-23T09:19:36.478Z,99.99
2022-12-23T09:20:36.487Z,99.99
2022-12-23T09:21:36.491Z,99.99
2022-12-23T09:22:36.487Z,99.99
2022-12-23T09:23:36.501Z,99.99
2022-12-23T09:24:36.502Z,99.99
2022-12-23T09:25:36.513Z,99.99
2022-12-23T09:26:36.526Z,99.99
2022-12-23T09:27:36.528Z,99.99
2022-12-23T09:28:36.539Z,99.99
2022-12-23T09:29:36.558Z,99.99
2022-12-23T09:30:36.551Z,99.99
2022-12-23T09:31:38.030Z,99.99
2022-12-23T09:32:36.589Z,99.99
2022-12-23T09:33:36.592Z,99.99
2022-12-23T09:34:36.574Z,99.99
2022-12-23T09:35:36.591Z,99.99
2022-12-23T09:36:36.642Z,99.99
2022-12-23T09:37:36.622Z,99.99
2022-12-23T09:38:36.607Z,99.99
2022-12-23T09:39:36.624Z,99.99
2022-12-23T09:40:36.643Z,99.99
2022-12-23T09:41:36.651Z,99.99
2022-12-23T09:42:36.639Z,99.99
2022-12-23T09:43:36.648Z,99.99
2022-12-23T09:44:36.667Z,99.99
2022-12-23T09:45:40.459Z,99.99
2022-12-23T09:46:36.697Z,99.99
2022-12-23T09:47:36.675Z,99.99
2022-12-23T09:48:36.708Z,99.99
2022-12-23T09:49:36.691Z,99.99
2022-12-23T09:50:36.699Z,99.99
2022-12-23T09:51:36.710Z,99.99
2022-12-23T09:52:36.714Z,99.99
2022-12-23T09:53:36.749Z,99.99
2022-12-23T09:54:36.731Z,99.99
2022-12-23T09:55:36.764Z,99.99
2022-12-23T09:56:36.851Z,99.99
2022-12-23T09:57:36.755Z,99.99
2022-12-23T09:58:36.766Z,99.99
2022-12-23T09:59:36.780Z,99.99
2022-12-23T10:00:36.784Z,99.99
2022-12-23T10:01:40.215Z,99.99
2022-12-23T10:02:37.006Z,99.99
2022-12-23T10:03:37.216Z,99.99
2022-12-23T10:04:36.970Z,99.99
2022-12-23T10:05:36.816Z,99.99
2022-12-23T10:06:36.834Z,99.99
2022-12-23T10:07:36.841Z,99.99
2022-12-23T10:08:36.836Z,99.99
2022-12-23T10:09:36.841Z,99.99
2022-12-23T10:10:36.878Z,99.99
2022-12-23T10:11:36.852Z,99.99
2022-12-23T10:12:40.048Z,99.99
2022-12-23T10:13:36.870Z,99.99
2022-12-23T10:14:36.881Z,99.99
2022-12-23T10:15:36.894Z,99.99
2022-12-23T10:16:36.967Z,99.99
2022-12-23T10:17:36.898Z,99.99
2022-12-23T10:18:36.912Z,99.99
2022-12-23T10:19:36.915Z,99.99
2022-12-23T10:20:36.946Z,99.99
2022-12-23T10:21:39.185Z,99.99
2022-12-23T10:22:36.951Z,99.99
2022-12-23T10:23:36.946Z,99.99
2022-12-23T10:24:36.961Z,99.99
2022-12-23T10:25:36.965Z,99.99
2022-12-23T10:26:36.968Z,99.99
2022-12-23T10:27:36.976Z,99.99
2022-12-23T10:28:36.987Z,99.99
2022-12-23T10:29:36.991Z,99.99
2022-12-23T10:31:17.163Z,99.99
2022-12-23T10:31:41.189Z,99.99
2022-12-23T10:32:37.146Z,99.99
2022-12-23T10:33:37.046Z,99.99
2022-12-23T10:35:37.035Z,99.99
2022-12-23T10:36:37.168Z,99.99
2022-12-23T10:37:37.062Z,99.99
2022-12-23T10:38:37.063Z,99.99
2022-12-23T10:39:37.067Z,99.99
2022-12-23T10:40:37.076Z,99.99
2022-12-23T10:41:37.085Z,99.99
2022-12-23T10:42:37.091Z,99.99
2022-12-23T10:43:37.097Z,99.99
2022-12-23T10:44:37.106Z,99.99
2022-12-23T10:45:37.165Z,99.99
2022-12-23T10:46:37.180Z,99.99
2022-12-23T10:47:37.124Z,99.99
2022-12-23T10:48:37.134Z,99.99
2022-12-23T10:49:37.140Z,99.99
2022-12-23T10:50:37.159Z,99.99
2022-12-23T10:51:37.156Z,99.99
2022-12-23T10:52:37.250Z,99.99
2022-12-23T10:53:37.188Z,99.99
2022-12-23T10:54:37.180Z,99.99
2022-12-23T10:55:37.192Z,99.99
2022-12-23T10:56:37.215Z,99.99
2022-12-23T10:57:37.218Z,99.99
2022-12-23T10:58:37.218Z,99.99
2022-12-23T10:59:37.214Z,99.99
2022-12-23T11:00:37.250Z,99.99
2022-12-23T11:01:37.439Z,99.99
2022-12-23T11:02:37.482Z,99.99
2022-12-23T11:03:37.440Z,99.99
2022-12-23T11:04:37.263Z,99.99
2022-12-23T11:05:37.269Z,99.99
2022-12-23T11:06:37.943Z,99.99
2022-12-23T11:07:46.006Z,99.99
2022-12-23T11:08:37.339Z,99.99
2022-12-23T11:09:37.290Z,98.35
2022-12-23T11:10:37.302Z,93.70
2022-12-23T11:11:37.304Z,89.96
2022-12-23T11:12:42.028Z,87.40
2022-12-23T11:13:37.318Z,86.26
2022-12-23T11:14:37.337Z,86.26
2022-12-23T11:15:37.337Z,85.22
2022-12-23T11:16:37.435Z,85.22
2022-12-23T11:17:37.349Z,85.13
2022-12-23T11:18:41.854Z,84.94
2022-12-23T11:19:37.369Z,85.50
2022-12-23T11:20:37.391Z,85.50
2022-12-23T11:21:37.377Z,85.83
2022-12-23T11:22:37.386Z,87.25
2022-12-23T11:23:37.401Z,88.20
2022-12-23T11:24:43.001Z,91.05
2022-12-23T11:25:37.411Z,91.80
2022-12-23T11:26:37.436Z,94.74
2022-12-23T11:27:37.419Z,97.97
2022-12-23T11:28:37.431Z,98.63
2022-12-23T11:29:37.442Z,98.92
2022-12-23T11:30:37.460Z,98.92
2022-12-23T11:31:37.509Z,99.77
2022-12-23T11:32:37.459Z,99.99
2022-12-23T11:33:37.479Z,99.99
2022-12-23T11:34:37.473Z,97.69
2022-12-23T11:35:37.585Z,97.31
2022-12-23T11:36:37.492Z,97.31
2022-12-23T11:37:37.495Z,94.84
2022-12-23T11:38:37.505Z,94.37
2022-12-23T11:39:37.524Z,94.84
2022-12-23T11:40:37.550Z,95.50
2022-12-23T11:41:37.522Z,95.41
2022-12-23T11:42:37.541Z,95.79
2022-12-23T11:43:37.554Z,95.69
2022-12-23T11:44:37.553Z,96.26
2022-12-23T11:45:37.606Z,96.17
2022-12-23T11:46:37.578Z,96.17
2022-12-23T11:47:37.567Z,96.73
2022-12-23T11:48:37.589Z,97.78
2022-12-23T11:49:37.585Z,97.97
2022-12-23T11:50:37.627Z,98.63
2022-12-23T11:51:37.609Z,99.77
2022-12-23T11:52:37.610Z,99.99
2022-12-23T11:53:37.613Z,99.99
2022-12-23T11:54:37.640Z,99.99
2022-12-23T11:55:37.639Z,99.99
2022-12-23T11:56:37.773Z,99.99
2022-12-23T11:57:37.647Z,99.99
2022-12-23T11:58:37.659Z,99.99
2022-12-23T11:59:37.658Z,99.99
2022-12-23T12:00:37.677Z,99.99
2022-12-23T12:01:37.677Z,99.99
2022-12-23T12:02:37.757Z,99.99
2022-12-23T12:03:37.789Z,99.99
2022-12-23T12:04:37.717Z,99.99
2022-12-23T12:05:37.719Z,99.99
2022-12-23T12:06:37.724Z,99.99
2022-12-23T12:07:37.723Z,99.99
2022-12-23T12:08:37.730Z,99.99
2022-12-23T12:09:37.751Z,99.99
2022-12-23T12:10:37.765Z,99.99
2022-12-23T12:11:37.755Z,99.99
2022-12-23T12:12:37.800Z,99.99
2022-12-23T12:13:37.793Z,99.99
2022-12-23T12:14:37.782Z,99.99
2022-12-23T12:15:37.798Z,99.99
2022-12-23T12:16:37.831Z,99.99
2022-12-23T12:17:37.798Z,99.99
2022-12-23T12:18:37.813Z,99.99
2022-12-23T12:19:37.816Z,99.99
2022-12-23T12:20:37.824Z,99.99
2022-12-23T12:21:37.831Z,99.99
2022-12-23T12:22:37.843Z,99.99
2022-12-23T12:23:37.843Z,98.11
2022-12-23T12:24:37.859Z,97.02
2022-12-23T12:25:39.675Z,94.74
2022-12-23T12:26:37.879Z,92.71
2022-12-23T12:27:37.879Z,89.20
2022-12-23T12:28:37.915Z,87.92
2022-12-23T12:29:37.901Z,87.06
2022-12-23T12:30:37.967Z,87.06
2022-12-23T12:31:37.920Z,87.35
2022-12-23T12:32:37.916Z,87.40
2022-12-23T12:33:37.920Z,88.39
2022-12-23T12:34:37.932Z,89.11
2022-12-23T12:35:37.940Z,89.96
2022-12-23T12:36:38.005Z,90.91
2022-12-23T12:37:37.955Z,92.80
2022-12-23T12:38:37.968Z,93.37
2022-12-23T12:39:37.974Z,94.32
2022-12-23T12:40:37.979Z,95.07
2022-12-23T12:41:38.010Z,95.74
2022-12-23T12:42:37.990Z,95.74
2022-12-23T12:43:37.998Z,96.31
2022-12-23T12:44:38.038Z,96.69
2022-12-23T12:45:38.066Z,98.02
2022-12-23T12:46:38.017Z,99.99
2022-12-23T12:47:54.185Z,99.99
2022-12-23T12:48:38.034Z,99.99
2022-12-23T12:49:38.038Z,99.99
2022-12-23T12:50:38.048Z,99.99
2022-12-23T12:51:38.056Z,99.99
2022-12-23T12:52:38.072Z,99.99
2022-12-23T12:53:38.086Z,99.99